Time;durP1;ratioP1;P1;durP2;ratioP2;P2;SDS_P1;SDS_P2;PMS_P1;PMS_P2;Temp;Humidity;BMP_temperature;BMP_pressure;BME280_temperature;BME280_humidity;BME280_pressure;Samples;Min_cycle;Max_cycle;Signal;HPM_P1;HPM_P2
2024/04/17 00:01:46;;;;;;;;;;;;;;;13.50;42.34;99519.84;5190412;26;94678;-72
2024/04/17 00:04:12;;;;;;;;;;;;;;;13.47;42.49;99525.06;5223656;26;94972;-72
2024/04/17 00:06:38;;;;;;;;;;;;;;;13.45;42.48;99527.31;5201890;26;94475;-72
2024/04/17 00:09:05;;;;;;;;;;;;;;;13.43;42.50;99524.09;5247506;26;94683;-72
2024/04/17 00:11:31;;;;;;;;;;;;;;;13.41;42.62;99534.44;5193523;26;96216;-72
2024/04/17 00:13:57;;;;;;;;;;;;;;;13.37;42.64;99530.75;5248704;26;94559;-72
2024/04/17 00:16:24;;;;;;;;;;;;;;;13.35;42.51;99532.94;5217455;26;95290;-72
2024/04/17 00:18:50;;;;;;;;;;;;;;;13.32;42.73;99531.66;5251257;26;95040;-72
2024/04/17 00:21:16;;;;;;;;;;;;;;;13.29;42.51;99536.91;5250574;26;95916;-72
2024/04/17 00:23:42;;;;;;;;;;;;;;;13.26;42.50;99538.31;5218970;26;95565;-72
2024/04/17 00:26:08;;;;;;;;;;;;;;;13.24;42.57;99543.22;5216468;26;95197;-72
2024/04/17 00:28:36;;;;;;;;;;;;;;;13.22;42.64;99540.78;5248212;26;94175;-72
2024/04/17 00:31:02;;;;;;;;;;;;;;;13.20;42.76;99551.13;5195963;26;94479;-72
2024/04/17 00:33:28;;;;;;;;;;;;;;;13.18;42.46;99541.72;5229400;26;94745;-72
2024/04/17 00:35:54;;;;;;;;;;;;;;;13.16;42.64;99550.13;5227569;26;94574;-72
2024/04/17 00:38:20;;;;;;;;;;;;;;;13.15;42.48;99542.31;5255642;26;94956;-72
2024/04/17 00:40:47;;;;;;;;;;;;;;;13.13;42.53;99544.56;5256372;26;95714;-72
2024/04/17 00:43:13;;;;;;;;;;;;;;;13.11;42.71;99547.53;5240394;26;94358;-72
2024/04/17 00:45:47;;;;;;;;;;;;;;;13.10;42.86;99550.56;5260116;26;95131;-72
2024/04/17 00:48:14;;;;;;;;;;;;;;;13.08;42.81;99550.84;5224199;26;94935;-72
2024/04/17 00:50:51;;;;;;;;;;;;;;;13.07;42.66;99548.47;5255782;26;94760;-72
2024/04/17 00:53:18;;;;;;;;;;;;;;;13.03;42.55;99554.47;5239698;26;97111;-72
2024/04/17 00:55:45;;;;;;;;;;;;;;;13.03;42.68;99559.91;5228941;26;95111;-72
2024/04/17 00:58:11;;;;;;;;;;;;;;;13.01;42.26;99558.63;5230717;26;95209;-72
2024/04/17 01:00:37;;;;;;;;;;;;;;;13.01;42.34;99561.31;5228000;26;94754;-72
2024/04/17 01:03:04;;;;;;;;;;;;;;;12.99;42.54;99552.69;5256579;26;94862;-72
2024/04/17 01:05:31;;;;;;;;;;;;;;;13.00;42.33;99559.69;5227056;26;96422;-72
2024/04/17 01:07:57;;;;;;;;;;;;;;;12.98;42.45;99553.81;5250856;26;94268;-72
2024/04/17 01:10:24;;;;;;;;;;;;;;;12.98;42.67;99553.81;5201536;26;94649;-72
2024/04/17 01:12:50;;;;;;;;;;;;;;;12.96;42.73;99551.38;5267287;26;94204;-72
2024/04/17 01:15:16;;;;;;;;;;;;;;;12.94;42.17;99550.91;5259748;26;98153;-72
2024/04/17 01:17:42;;;;;;;;;;;;;;;12.94;42.23;99553.63;5212153;26;96194;-72
2024/04/17 01:20:08;;;;;;;;;;;;;;;12.93;42.92;99562.03;5255070;26;94425;-72
2024/04/17 01:22:34;;;;;;;;;;;;;;;12.91;42.27;99559.63;5239412;26;94549;-72
2024/04/17 01:25:00;;;;;;;;;;;;;;;12.88;42.59;99562.13;5204062;26;94142;-71
2024/04/17 01:27:26;;;;;;;;;;;;;;;12.87;42.40;99560.53;5238774;26;96363;-72
2024/04/17 01:29:53;;;;;;;;;;;;;;;12.84;42.53;99566.56;5237236;26;94600;-72
2024/04/17 01:32:19;;;;;;;;;;;;;;;12.82;42.69;99566.88;5200325;26;94908;-72
2024/04/17 01:34:45;;;;;;;;;;;;;;;12.79;42.61;99572.88;5255436;26;94496;-72
2024/04/17 01:37:11;;;;;;;;;;;;;;;12.76;42.43;99565.38;5198989;26;96096;-72
2024/04/17 01:39:37;;;;;;;;;;;;;;;12.74;42.60;99573.00;5229083;26;94994;-71
2024/04/17 01:42:03;;;;;;;;;;;;;;;12.72;42.71;99572.47;5238094;26;94354;-72
2024/04/17 01:44:29;;;;;;;;;;;;;;;12.70;42.44;99577.41;5258824;26;94314;-72
2024/04/17 01:46:56;;;;;;;;;;;;;;;12.68;42.88;99582.31;5208869;26;94225;-72
2024/04/17 01:49:22;;;;;;;;;;;;;;;12.65;42.63;99578.28;5206059;26;94330;-72
2024/04/17 01:51:48;;;;;;;;;;;;;;;12.63;42.65;99588.63;5257122;26;94813;-72
2024/04/17 01:54:14;;;;;;;;;;;;;;;12.61;42.54;99588.09;5205572;26;96244;-72
2024/04/17 01:56:40;;;;;;;;;;;;;;;12.59;42.59;99595.72;5251842;26;95516;-72
2024/04/17 01:59:07;;;;;;;;;;;;;;;12.58;42.91;99596.06;5217869;26;94439;-72
2024/04/17 02:01:35;;;;;;;;;;;;;;;12.55;42.70;99597.44;5203407;26;94360;-72
2024/04/17 02:04:01;;;;;;;;;;;;;;;12.53;42.61;99610.44;5195321;26;94115;-72
2024/04/17 02:06:27;;;;;;;;;;;;;;;12.50;42.49;99617.28;5254409;26;98022;-72
2024/04/17 02:08:53;;;;;;;;;;;;;;;12.48;42.42;99618.66;5229647;26;94313;-72
2024/04/17 02:11:19;;;;;;;;;;;;;;;12.47;42.80;99622.47;5266389;26;94307;-72
2024/04/17 02:13:46;;;;;;;;;;;;;;;12.44;42.40;99623.06;5189916;26;94617;-72
2024/04/17 02:16:12;;;;;;;;;;;;;;;12.43;42.31;99626.88;5225159;26;96656;-72
2024/04/17 02:18:38;;;;;;;;;;;;;;;12.40;42.63;99628.25;5261031;26;94417;-72
2024/04/17 02:21:05;;;;;;;;;;;;;;;12.40;42.85;99624.75;5260866;26;94414;-72
2024/04/17 02:23:31;;;;;;;;;;;;;;;12.39;43.01;99623.16;5198075;26;94709;-72
2024/04/17 02:25:57;;;;;;;;;;;;;;;12.39;42.35;99625.88;5204504;26;94474;-72
2024/04/17 02:28:23;;;;;;;;;;;;;;;12.38;42.54;99621.53;5194050;26;94354;-72
2024/04/17 02:30:49;;;;;;;;;;;;;;;12.37;42.50;99623.44;5231330;26;94197;-72
2024/04/17 02:33:15;;;;;;;;;;;;;;;12.39;42.91;99632.06;5252274;26;95643;-72
2024/04/17 02:35:41;;;;;;;;;;;;;;;12.36;42.79;99621.84;5204496;26;94402;-72
2024/04/17 02:38:08;;;;;;;;;;;;;;;12.37;42.96;99628.06;5252015;26;96359;-72
2024/04/17 02:40:34;;;;;;;;;;;;;;;12.36;42.49;99623.75;5231931;26;94412;-72
2024/04/17 02:43:00;;;;;;;;;;;;;;;12.35;42.91;99627.56;5224776;26;94627;-72
2024/04/17 02:45:26;;;;;;;;;;;;;;;12.34;42.92;99634.06;5232678;26;94383;-72
2024/04/17 02:47:53;;;;;;;;;;;;;;;12.34;42.85;99634.06;5224053;26;94529;-72
2024/04/17 02:50:19;;;;;;;;;;;;;;;12.32;42.72;99633.56;5204877;26;94445;-72
2024/04/17 02:52:45;;;;;;;;;;;;;;;12.31;42.40;99631.97;5231047;26;94815;-72
2024/04/17 02:55:11;;;;;;;;;;;;;;;12.29;42.72;99637.66;5230115;26;94645;-72
2024/04/17 02:57:37;;;;;;;;;;;;;;;12.28;42.42;99636.84;5256752;26;95220;-71
2024/04/17 03:00:04;;;;;;;;;;;;;;;12.26;42.71;99639.06;5259609;26;94493;-72
2024/04/17 03:02:30;;;;;;;;;;;;;;;12.25;42.74;99647.47;5223291;26;94772;-71
2024/04/17 03:04:56;;;;;;;;;;;;;;;12.24;42.67;99645.88;5227567;26;94389;-71
2024/04/17 03:07:24;;;;;;;;;;;;;;;12.22;42.91;99646.16;5190642;26;94810;-72
2024/04/17 03:09:51;;;;;;;;;;;;;;;12.22;42.38;99651.56;5250254;26;94815;-71
2024/04/17 03:12:17;;;;;;;;;;;;;;;12.21;42.86;99651.84;5224179;26;95635;-72
2024/04/17 03:14:43;;;;;;;;;;;;;;;12.20;42.56;99651.06;5272991;26;96843;-71
2024/04/17 03:17:10;;;;;;;;;;;;;;;12.20;42.94;99658.38;5197603;26;94318;-71
2024/04/17 03:19:36;;;;;;;;;;;;;;;12.19;42.70;99652.16;5221154;26;94548;-71
2024/04/17 03:22:02;;;;;;;;;;;;;;;12.18;42.48;99653.28;5195373;26;95222;-72
2024/04/17 03:24:29;;;;;;;;;;;;;;;12.19;42.32;99656.78;5231534;26;95837;-72
2024/04/17 03:26:55;;;;;;;;;;;;;;;12.18;42.87;99661.38;5219245;26;95801;-71
2024/04/17 03:29:21;;;;;;;;;;;;;;;12.18;42.43;99658.69;5261351;26;94504;-71
2024/04/17 03:31:48;;;;;;;;;;;;;;;12.18;42.85;99666.78;5259219;26;94482;-71
2024/04/17 03:34:14;;;;;;;;;;;;;;;12.18;42.69;99655.97;5251103;26;94211;-71
2024/04/17 03:36:40;;;;;;;;;;;;;;;12.16;42.90;99658.16;5249998;26;95347;-71
2024/04/17 03:39:06;;;;;;;;;;;;;;;12.15;42.33;99667.38;5204485;26;95537;-71
2024/04/17 03:41:32;;;;;;;;;;;;;;;12.15;42.83;99667.38;5232187;26;94820;-71
2024/04/17 03:43:58;;;;;;;;;;;;;;;12.15;42.80;99664.66;5250242;26;95116;-72
2024/04/17 03:46:25;;;;;;;;;;;;;;;12.14;42.99;99681.16;5247350;26;95214;-71
2024/04/17 03:48:51;;;;;;;;;;;;;;;12.14;42.73;99675.75;5252598;26;96289;-71
2024/04/17 03:51:17;;;;;;;;;;;;;;;12.14;42.99;99681.16;5219133;26;94557;-71
2024/04/17 03:53:43;;;;;;;;;;;;;;;12.13;43.05;99680.34;5226211;26;95326;-72
2024/04/17 03:56:09;;;;;;;;;;;;;;;12.12;42.42;99694.97;5262035;26;97335;-71
2024/04/17 03:58:35;;;;;;;;;;;;;;;12.10;42.50;99689.03;5193778;26;96112;-72
2024/04/17 04:01:02;;;;;;;;;;;;;;;12.11;42.33;99693.38;5194397;26;96288;-71
2024/04/17 04:03:29;;;;;;;;;;;;;;;12.10;42.94;99697.16;5231764;26;94031;-71
2024/04/17 04:05:55;;;;;;;;;;;;;;;12.11;42.49;99701.47;5232625;26;96261;-71
2024/04/17 04:08:21;;;;;;;;;;;;;;;12.11;42.66;99697.97;5250508;26;94893;-71
2024/04/17 04:10:47;;;;;;;;;;;;;;;12.10;42.39;99704.44;5209855;26;95452;-71
2024/04/17 04:13:13;;;;;;;;;;;;;;;12.11;42.77;99711.47;5192770;26;96929;-71
2024/04/17 04:15:39;;;;;;;;;;;;;;;12.10;42.55;99716.06;5260788;26;95998;-70
2024/04/17 04:18:06;;;;;;;;;;;;;;;12.11;42.36;99727.69;5223123;26;94861;-71
2024/04/17 04:20:32;;;;;;;;;;;;;;;12.09;42.57;99725.28;5190146;26;96039;-71
2024/04/17 04:22:58;;;;;;;;;;;;;;;12.13;42.80;99733.59;5250908;26;94631;-71
2024/04/17 04:25:25;;;;;;;;;;;;;;;12.12;42.37;99735.50;5247209;26;98656;-70
2024/04/17 04:27:51;;;;;;;;;;;;;;;12.13;42.67;99733.59;5221960;26;95153;-70
2024/04/17 04:30:17;;;;;;;;;;;;;;;12.14;42.83;99732.47;5232990;26;94580;-71
2024/04/17 04:32:43;;;;;;;;;;;;;;;12.15;42.90;99728.72;5192460;26;94458;-71
2024/04/17 04:35:09;;;;;;;;;;;;;;;12.16;42.40;99739.22;5228776;26;94357;-71
2024/04/17 04:37:35;;;;;;;;;;;;;;;12.17;42.57;99731.91;5256867;26;96511;-71
2024/04/17 04:40:02;;;;;;;;;;;;;;;12.18;42.60;99742.44;5200137;26;95031;-70
2024/04/17 04:42:28;;;;;;;;;;;;;;;12.21;42.29;99738.31;5224554;26;94332;-71
2024/04/17 04:44:55;;;;;;;;;;;;;;;12.23;42.27;99741.53;5246369;26;94622;-71
2024/04/17 04:47:21;;;;;;;;;;;;;;;12.25;42.18;99745.53;5224662;26;95485;-71
2024/04/17 04:49:47;;;;;;;;;;;;;;;12.28;42.28;99750.34;5226873;26;95033;-71
2024/04/17 04:52:13;;;;;;;;;;;;;;;12.33;42.30;99745.97;5225434;26;95386;-72
2024/04/17 04:54:39;;;;;;;;;;;;;;;12.37;42.12;99749.66;5223473;26;99611;-71
2024/04/17 04:57:06;;;;;;;;;;;;;;;12.40;42.49;99754.50;5224436;26;95891;-71
2024/04/17 04:59:32;;;;;;;;;;;;;;;12.48;42.21;99751.09;5246533;26;94630;-71
2024/04/17 05:01:58;;;;;;;;;;;;;;;12.54;42.55;99758.03;5198392;26;94362;-71
2024/04/17 05:04:24;;;;;;;;;;;;;;;12.58;42.14;99744.75;5273885;26;94699;-70
2024/04/17 05:06:50;;;;;;;;;;;;;;;12.61;42.13;99747.63;5254960;26;98664;-71
2024/04/17 05:09:16;;;;;;;;;;;;;;;12.65;42.32;99759.44;5246174;26;94885;-71
2024/04/17 05:11:43;;;;;;;;;;;;;;;12.71;42.07;99747.44;5226537;26;94850;-71
2024/04/17 05:14:13;;;;;;;;;;;;;;;12.77;42.35;99756.25;5229301;26;94586;-71
2024/04/17 05:16:40;;;;;;;;;;;;;;;12.83;42.12;99756.97;5241714;26;94693;-71
2024/04/17 05:19:06;;;;;;;;;;;;;;;12.84;42.39;99766.69;5247030;26;94389;-71
2024/04/17 05:21:32;;;;;;;;;;;;;;;12.83;42.21;99770.50;5222754;26;96062;-71
2024/04/17 05:23:59;;;;;;;;;;;;;;;12.81;42.47;99772.69;5201108;26;95526;-71
2024/04/17 05:26:25;;;;;;;;;;;;;;;12.79;42.24;99775.69;5253688;26;95496;-71
2024/04/17 05:28:51;;;;;;;;;;;;;;;12.81;42.00;99786.22;5220574;26;94249;-71
2024/04/17 05:31:17;;;;;;;;;;;;;;;12.77;42.49;99786.00;5224947;26;95507;-70
2024/04/17 05:33:46;;;;;;;;;;;;;;;12.79;42.22;99794.63;5226138;26;94449;-71
2024/04/17 05:36:13;;;;;;;;;;;;;;;12.83;42.25;99789.44;5223698;26;97021;-70
2024/04/17 05:38:39;;;;;;;;;;;;;;;12.87;42.13;99795.84;5187250;26;94421;-71
2024/04/17 05:41:05;;;;;;;;;;;;;;;12.91;42.19;99800.34;5216803;26;94987;-71
2024/04/17 05:43:32;;;;;;;;;;;;;;;12.97;42.50;99793.78;5230745;26;95729;-70
2024/04/17 05:45:58;;;;;;;;;;;;;;;13.06;42.29;99795.78;5223740;26;96548;-71
2024/04/17 05:48:24;;;;;;;;;;;;;;;13.09;42.05;99800.59;5255867;26;94703;-71
2024/04/17 05:50:51;;;;;;;;;;;;;;;13.15;41.87;99802.09;5200535;26;94779;-71
2024/04/17 05:53:18;;;;;;;;;;;;;;;13.19;41.90;99803.09;5225850;26;96527;-71
2024/04/17 05:55:45;;;;;;;;;;;;;;;13.23;41.96;99799.50;5272792;26;94731;-71
2024/04/17 05:58:11;;;;;;;;;;;;;;;13.36;41.82;99800.63;5229173;26;94645;-71
2024/04/17 06:00:37;;;;;;;;;;;;;;;13.49;41.85;99804.41;5254520;26;94410;-70
2024/04/17 06:03:03;;;;;;;;;;;;;;;13.57;41.98;99801.00;5252426;26;94649;-71
2024/04/17 06:05:30;;;;;;;;;;;;;;;13.62;41.70;99792.75;5246610;26;95151;-71
2024/04/17 06:07:56;;;;;;;;;;;;;;;13.70;41.57;99796.66;5193905;26;97214;-71
2024/04/17 06:10:22;;;;;;;;;;;;;;;13.77;41.95;99796.25;5248985;26;96337;-71
2024/04/17 06:12:48;;;;;;;;;;;;;;;13.88;41.85;99795.72;5219142;26;95625;-71
2024/04/17 06:15:14;;;;;;;;;;;;;;;14.01;41.69;99799.50;5231444;26;94509;-71
2024/04/17 06:17:40;;;;;;;;;;;;;;;14.13;41.92;99798.97;5259579;26;94263;-71
2024/04/17 06:20:07;;;;;;;;;;;;;;;14.28;41.56;99811.34;5193112;26;95032;-71
2024/04/17 06:22:33;;;;;;;;;;;;;;;14.43;41.38;99797.44;5200319;26;94444;-71
2024/04/17 06:24:59;;;;;;;;;;;;;;;14.73;41.35;99799.38;5229942;26;94166;-71
2024/04/17 06:27:26;;;;;;;;;;;;;;;15.01;41.33;99799.19;5254270;26;94627;-71
2024/04/17 06:29:52;;;;;;;;;;;;;;;15.25;41.15;99801.56;5202591;26;94959;-71
2024/04/17 06:32:18;;;;;;;;;;;;;;;15.50;41.39;99802.75;5199624;26;94620;-71
2024/04/17 06:34:44;;;;;;;;;;;;;;;15.76;41.27;99802.00;5262121;26;95184;-71
2024/04/17 06:37:10;;;;;;;;;;;;;;;16.04;40.52;99803.34;5249791;26;95061;-71
2024/04/17 06:39:36;;;;;;;;;;;;;;;16.37;41.19;99809.06;5229027;26;95794;-71
2024/04/17 06:42:03;;;;;;;;;;;;;;;16.80;39.93;99801.97;5193704;26;95124;-71
2024/04/17 06:44:30;;;;;;;;;;;;;;;17.38;39.81;99792.31;5231688;26;95051;-71
2024/04/17 06:46:56;;;;;;;;;;;;;;;18.32;39.63;99786.53;5192347;26;94948;-71
2024/04/17 06:49:22;;;;;;;;;;;;;;;19.33;39.07;99792.28;5227225;26;95848;-71
2024/04/17 06:51:48;;;;;;;;;;;;;;;20.19;37.82;99786.69;5200706;26;94951;-72
2024/04/17 06:54:14;;;;;;;;;;;;;;;20.93;37.74;99803.56;5242808;26;94362;-71
2024/04/17 06:56:40;;;;;;;;;;;;;;;21.18;38.29;99795.16;5241268;26;94631;-72
2024/04/17 06:59:07;;;;;;;;;;;;;;;21.17;39.14;99793.56;5251227;26;95125;-71
2024/04/17 07:01:33;;;;;;;;;;;;;;;20.79;39.36;99805.94;5200888;26;95383;-71
2024/04/17 07:03:59;;;;;;;;;;;;;;;20.33;39.86;99805.44;5228298;26;95115;-71
2024/04/17 07:06:25;;;;;;;;;;;;;;;20.08;39.72;99813.75;5227150;26;94777;-71
2024/04/17 07:08:51;;;;;;;;;;;;;;;19.79;39.84;99808.56;5228388;26;96356;-71
2024/04/17 07:11:17;;;;;;;;;;;;;;;19.43;40.81;99818.38;5196177;26;95091;-72
2024/04/17 07:13:44;;;;;;;;;;;;;;;19.11;40.73;99811.88;5246609;26;95116;-71
2024/04/17 07:16:10;;;;;;;;;;;;;;;18.90;41.18;99814.66;5249112;26;95292;-72
2024/04/17 07:18:36;;;;;;;;;;;;;;;18.77;41.32;99818.53;5227131;26;95402;-72
2024/04/17 07:21:02;;;;;;;;;;;;;;;18.67;41.12;99825.19;5228617;26;95846;-72
2024/04/17 07:23:28;;;;;;;;;;;;;;;18.67;40.93;99821.63;5197216;26;94362;-72
2024/04/17 07:25:54;;;;;;;;;;;;;;;18.74;40.83;99813.72;5253328;26;95560;-72
2024/04/17 07:28:20;;;;;;;;;;;;;;;18.78;40.70;99820.09;5226182;26;94351;-72
2024/04/17 07:30:47;;;;;;;;;;;;;;;18.72;40.96;99819.53;5193578;26;100142;-72
2024/04/17 07:33:13;;;;;;;;;;;;;;;18.63;41.08;99822.31;5218631;26;95476;-72
2024/04/17 07:35:39;;;;;;;;;;;;;;;18.60;41.01;99822.19;5189174;26;94674;-72
2024/04/17 07:38:06;;;;;;;;;;;;;;;18.55;41.01;99819.66;5245334;26;96213;-71
2024/04/17 07:40:32;;;;;;;;;;;;;;;18.49;41.12;99823.75;5228844;26;94687;-71
2024/04/17 07:42:59;;;;;;;;;;;;;;;18.52;41.17;99832.06;5226105;26;98267;-72
2024/04/17 07:45:25;;;;;;;;;;;;;;;18.57;41.05;99825.59;5254174;26;95150;-72
2024/04/17 07:47:51;;;;;;;;;;;;;;;18.60;40.68;99830.38;5224993;26;99586;-72
2024/04/17 07:50:18;;;;;;;;;;;;;;;18.52;41.14;99834.78;5242177;26;96029;-71
2024/04/17 07:52:46;;;;;;;;;;;;;;;18.43;41.28;99834.09;5229727;26;94271;-71
2024/04/17 07:55:13;;;;;;;;;;;;;;;18.38;41.18;99832.34;5249424;26;95569;-71
2024/04/17 07:57:39;;;;;;;;;;;;;;;18.40;41.35;99832.03;5255106;26;94727;-72
2024/04/17 08:00:06;;;;;;;;;;;;;;;18.54;40.90;99829.78;5225230;26;95337;-71
2024/04/17 08:02:32;;;;;;;;;;;;;;;18.53;41.21;99836.38;5218785;26;95059;-72
2024/04/17 08:04:58;;;;;;;;;;;;;;;18.45;41.07;99831.00;5240379;26;94971;-71
2024/04/17 08:07:25;;;;;;;;;;;;;;;18.38;41.16;99828.81;5244980;26;95980;-71
2024/04/17 08:09:51;;;;;;;;;;;;;;;18.37;40.95;99832.69;5224880;26;94548;-72
2024/04/17 08:12:18;;;;;;;;;;;;;;;18.46;41.25;99832.59;5255048;26;96547;-71
2024/04/17 08:14:44;;;;;;;;;;;;;;;18.58;41.11;99825.25;5243814;26;99686;-72
2024/04/17 08:17:10;;;;;;;;;;;;;;;18.80;40.75;99834.22;5225461;26;95331;-72
2024/04/17 08:19:37;;;;;;;;;;;;;;;18.92;40.65;99828.00;5195675;26;96731;-72
2024/04/17 08:22:03;;;;;;;;;;;;;;;19.05;40.94;99824.16;5219457;26;95973;-72
2024/04/17 08:24:29;;;;;;;;;;;;;;;19.17;40.81;99828.81;5240998;26;98510;-72
2024/04/17 08:26:55;;;;;;;;;;;;;;;19.32;40.30;99831.69;5253561;26;94820;-72
2024/04/17 08:29:21;;;;;;;;;;;;;;;19.49;40.45;99829.84;5227392;26;95614;-71
2024/04/17 08:31:49;;;;;;;;;;;;;;;19.60;40.08;99829.06;5245846;26;94844;-72
2024/04/17 08:34:15;;;;;;;;;;;;;;;19.73;40.65;99821.69;5245620;26;94936;-72
2024/04/17 08:36:42;;;;;;;;;;;;;;;19.82;40.30;99827.81;5250990;26;94298;-72
2024/04/17 08:39:09;;;;;;;;;;;;;;;19.90;40.85;99826.09;5251246;26;95402;-71
2024/04/17 08:41:36;;;;;;;;;;;;;;;20.00;40.13;99827.53;5253625;26;96648;-72
2024/04/17 08:44:02;;;;;;;;;;;;;;;20.14;40.52;99827.19;5184755;26;94632;-72
2024/04/17 08:46:28;;;;;;;;;;;;;;;20.35;40.57;99828.56;5202854;26;94535;-72
2024/04/17 08:48:55;;;;;;;;;;;;;;;20.89;40.55;99832.00;5216477;26;94825;-72
2024/04/17 08:51:23;;;;;;;;;;;;;;;22.95;38.13;99818.53;5191724;26;94467;-73
2024/04/17 08:53:49;;;;;;;;;;;;;;;23.99;37.91;99823.69;5200825;26;95629;-73
2024/04/17 08:56:15;;;;;;;;;;;;;;;26.11;36.17;99825.28;5252910;26;94673;-73
2024/04/17 08:58:42;;;;;;;;;;;;;;;27.02;35.98;99827.91;5203865;26;94929;-73
2024/04/17 09:01:10;;;;;;;;;;;;;;;28.20;36.10;99829.75;5223687;26;94302;-73
2024/04/17 09:03:36;;;;;;;;;;;;;;;29.93;35.77;99837.25;5218085;26;94999;-73
2024/04/17 09:06:02;;;;;;;;;;;;;;;31.31;35.44;99838.56;5201361;26;96009;-73
2024/04/17 09:08:28;;;;;;;;;;;;;;;32.50;34.83;99829.53;5228358;26;95305;-73
2024/04/17 09:10:55;;;;;;;;;;;;;;;33.59;34.10;99840.53;5250550;26;94620;-74
2024/04/17 09:13:21;;;;;;;;;;;;;;;34.77;33.97;99837.19;5199407;26;94912;-73
2024/04/17 09:15:47;;;;;;;;;;;;;;;33.23;36.36;99838.63;5255481;26;95854;-73
2024/04/17 09:18:13;;;;;;;;;;;;;;;33.43;36.29;99828.13;5249738;26;95498;-73
2024/04/17 09:20:40;;;;;;;;;;;;;;;34.53;35.70;99828.34;5229341;26;94595;-73
2024/04/17 09:23:09;;;;;;;;;;;;;;;35.34;34.64;99833.31;5246012;26;94336;-74
2024/04/17 09:25:37;;;;;;;;;;;;;;;36.35;34.72;99830.53;5221567;26;94745;-73
2024/04/17 09:28:04;;;;;;;;;;;;;;;37.45;34.36;99824.56;5231675;26;94347;-71
2024/04/17 09:30:30;;;;;;;;;;;;;;;38.71;33.97;99828.88;5220438;26;94987;-71
2024/04/17 09:32:56;;;;;;;;;;;;;;;39.90;33.36;99827.34;5277473;26;94822;-71
2024/04/17 09:35:22;;;;;;;;;;;;;;;40.63;32.77;99820.94;5227888;26;95333;-71
2024/04/17 09:37:49;;;;;;;;;;;;;;;39.27;34.43;99813.31;5260380;26;94439;-72
2024/04/17 09:40:16;;;;;;;;;;;;;;;38.83;34.99;99807.44;5192515;26;95288;-71
2024/04/17 09:42:42;;;;;;;;;;;;;;;39.26;34.96;99804.06;5231511;26;95146;-72
2024/04/17 09:45:15;;;;;;;;;;;;;;;40.45;33.73;99816.28;5252169;26;95629;-72
2024/04/17 09:47:44;;;;;;;;;;;;;;;40.34;34.11;99801.97;5220742;26;95099;-71
2024/04/17 09:50:17;;;;;;;;;;;;;;;38.55;36.59;99808.34;5218265;26;95750;-71
2024/04/17 09:52:44;;;;;;;;;;;;;;;37.58;36.94;99788.66;5198844;26;94677;-72
2024/04/17 09:55:11;;;;;;;;;;;;;;;39.33;35.25;99799.31;5251394;26;94619;-71
2024/04/17 09:57:37;;;;;;;;;;;;;;;37.23;37.26;99794.56;5275078;26;97179;-72
2024/04/17 10:00:04;;;;;;;;;;;;;;;35.92;38.26;99789.28;5228233;26;94476;-71
2024/04/17 10:02:31;;;;;;;;;;;;;;;34.93;38.00;99789.47;5220707;26;95249;-72
2024/04/17 10:04:58;;;;;;;;;;;;;;;34.07;38.53;99788.53;5199047;26;94592;-71
2024/04/17 10:07:26;;;;;;;;;;;;;;;33.33;39.45;99787.34;5230022;26;95107;-70
2024/04/17 10:09:52;;;;;;;;;;;;;;;34.68;37.48;99779.88;5272652;26;96197;-71
2024/04/17 10:12:20;;;;;;;;;;;;;;;36.61;35.78;99789.06;5245203;26;94614;-72
2024/04/17 10:14:46;;;;;;;;;;;;;;;38.15;34.93;99785.31;5228957;26;95390;-74
2024/04/17 10:17:12;;;;;;;;;;;;;;;36.83;35.91;99784.16;5228486;26;95551;-75
2024/04/17 10:19:38;;;;;;;;;;;;;;;38.00;35.66;99780.34;5189975;26;95026;-74
2024/04/17 10:22:05;;;;;;;;;;;;;;;37.48;36.06;99784.28;5188265;26;94555;-75
2024/04/17 10:24:32;;;;;;;;;;;;;;;38.97;34.60;99787.03;5245896;26;94832;-74
2024/04/17 10:27:04;;;;;;;;;;;;;;;37.62;36.39;99783.66;5247662;26;95964;-74
2024/04/17 10:29:31;;;;;;;;;;;;;;;36.20;37.11;99771.44;5228824;26;94968;-74
2024/04/17 10:32:02;;;;;;;;;;;;;;;36.67;36.90;99776.00;5226446;26;95763;-74
2024/04/17 10:34:49;;;;;;;;;;;;;;;35.67;37.56;99773.41;5221299;26;96108;-74
2024/04/17 10:37:17;;;;;;;;;;;;;;;34.30;38.40;99779.06;5239032;26;95265;-74
2024/04/17 10:39:43;;;;;;;;;;;;;;;33.45;39.33;99763.50;5199244;26;96910;-73
2024/04/17 10:42:09;;;;;;;;;;;;;;;35.47;37.36;99766.06;5247969;26;94373;-74
2024/04/17 10:44:36;;;;;;;;;;;;;;;36.77;35.90;99776.81;5252771;26;94575;-74
2024/04/17 10:47:02;;;;;;;;;;;;;;;37.34;34.99;99771.63;5256066;26;94971;-74
2024/04/17 10:49:30;;;;;;;;;;;;;;;38.62;34.44;99775.47;5226586;26;94768;-75
2024/04/17 10:51:56;;;;;;;;;;;;;;;39.72;33.82;99769.88;5246843;26;94901;-73
2024/04/17 10:54:22;;;;;;;;;;;;;;;40.77;33.23;99770.56;5225511;26;97934;-74
2024/04/17 10:56:50;;;;;;;;;;;;;;;41.76;33.02;99765.84;5228255;26;94289;-74
2024/04/17 10:59:16;;;;;;;;;;;;;;;40.57;34.28;99771.31;5195488;26;94719;-73
2024/04/17 11:01:44;;;;;;;;;;;;;;;38.72;35.69;99758.06;5226804;26;96370;-73
2024/04/17 11:04:11;;;;;;;;;;;;;;;37.55;36.96;99753.06;5222512;26;96252;-73
2024/04/17 11:06:38;;;;;;;;;;;;;;;36.63;37.15;99744.50;5194098;26;94491;-73
2024/04/17 11:09:07;;;;;;;;;;;;;;;38.53;35.24;99748.94;5251460;26;95866;-74
2024/04/17 11:11:33;;;;;;;;;;;;;;;37.25;36.86;99749.16;5225924;26;99071;-74
2024/04/17 11:13:59;;;;;;;;;;;;;;;37.28;36.39;99751.78;5191358;26;94692;-73
2024/04/17 11:16:26;;;;;;;;;;;;;;;36.05;37.58;99748.75;5225631;26;95355;-73
2024/04/17 11:18:52;;;;;;;;;;;;;;;35.32;37.74;99743.38;5251051;26;94959;-73
2024/04/17 11:21:21;;;;;;;;;;;;;;;36.03;36.79;99751.22;5195802;26;95373;-73
2024/04/17 11:23:48;;;;;;;;;;;;;;;37.42;35.47;99749.66;5230520;26;95602;-73
2024/04/17 11:26:15;;;;;;;;;;;;;;;38.28;35.22;99746.50;5227328;26;94236;-73
2024/04/17 11:28:42;;;;;;;;;;;;;;;39.04;34.70;99750.81;5197242;26;95139;-73
2024/04/17 11:31:13;;;;;;;;;;;;;;;39.68;34.62;99751.59;5249610;26;96815;-73
2024/04/17 11:33:40;;;;;;;;;;;;;;;40.32;34.05;99750.88;5243659;26;94278;-73
2024/04/17 11:36:15;;;;;;;;;;;;;;;39.21;35.32;99736.31;5228709;26;96354;-73
2024/04/17 11:38:44;;;;;;;;;;;;;;;38.11;36.53;99737.66;5200676;26;94760;-73
2024/04/17 11:41:11;;;;;;;;;;;;;;;37.03;37.17;99746.50;5202034;26;95104;-73
2024/04/17 11:43:37;;;;;;;;;;;;;;;36.21;37.88;99746.97;5200690;26;94307;-73
2024/04/17 11:46:04;;;;;;;;;;;;;;;35.54;37.99;99743.44;5248529;26;94728;-73
2024/04/17 11:48:31;;;;;;;;;;;;;;;35.63;37.54;99745.50;5229828;26;95216;-73
2024/04/17 11:50:59;;;;;;;;;;;;;;;35.21;38.31;99739.38;5190171;26;95468;-73
2024/04/17 11:53:25;;;;;;;;;;;;;;;35.15;37.70;99751.16;5232247;26;96071;-73
2024/04/17 11:55:53;;;;;;;;;;;;;;;35.68;36.78;99746.94;5195601;26;94611;-73
2024/04/17 11:58:20;;;;;;;;;;;;;;;36.38;36.07;99739.88;5248275;26;95179;-73
2024/04/17 12:00:49;;;;;;;;;;;;;;;36.96;36.35;99743.97;5230444;26;95063;-73
2024/04/17 12:03:20;;;;;;;;;;;;;;;37.44;35.47;99747.91;5253198;26;94390;-73
2024/04/17 12:05:47;;;;;;;;;;;;;;;37.68;35.78;99750.09;5229485;26;95506;-74
2024/04/17 12:08:14;;;;;;;;;;;;;;;38.09;35.46;99750.66;5196227;26;98161;-74
2024/04/17 12:10:41;;;;;;;;;;;;;;;38.03;35.67;99754.09;5260490;26;95275;-73
2024/04/17 12:13:09;;;;;;;;;;;;;;;37.92;35.94;99747.41;5217459;26;94792;-74
2024/04/17 12:15:36;;;;;;;;;;;;;;;36.76;37.06;99739.53;5218062;26;99990;-75
2024/04/17 12:18:03;;;;;;;;;;;;;;;36.06;37.42;99746.75;5197095;26;95635;-73
2024/04/17 12:20:33;;;;;;;;;;;;;;;35.39;37.79;99745.91;5226299;26;95255;-73
2024/04/17 12:23:01;;;;;;;;;;;;;;;36.05;37.29;99737.56;5224549;26;94914;-73
2024/04/17 12:28:13;;;;;;;;;;;;;;;36.32;36.53;99750.91;5249258;26;95291;-73
2024/04/17 12:30:42;;;;;;;;;;;;;;;35.77;37.06;99739.38;5197514;26;95513;-74
2024/04/17 12:33:08;;;;;;;;;;;;;;;35.95;36.67;99741.50;5191134;26;94523;-73
2024/04/17 12:35:35;;;;;;;;;;;;;;;36.08;37.00;99742.25;5190146;26;98085;-74
2024/04/17 12:38:01;;;;;;;;;;;;;;;36.19;36.43;99735.41;5204837;26;94580;-73
2024/04/17 12:40:27;;;;;;;;;;;;;;;36.33;36.18;99746.88;5216051;26;94702;-74
2024/04/17 12:42:53;;;;;;;;;;;;;;;36.61;36.50;99744.19;5200184;26;96078;-74
2024/04/17 12:45:19;;;;;;;;;;;;;;;36.57;36.79;99751.97;5242033;26;94388;-74
2024/04/17 12:47:47;;;;;;;;;;;;;;;35.92;36.40;99741.63;5222975;26;94618;-74